createdAt,value
2018-06-14T00:02:11.655Z,70.80
2018-06-14T00:04:39.413Z,71.10
2018-06-14T00:07:07.191Z,69.60
2018-06-14T00:09:35.057Z,70.20
2018-06-14T00:12:02.688Z,72.30
2018-06-14T00:14:30.527Z,72.70
2018-06-14T00:16:58.303Z,72.70
2018-06-14T00:19:25.954Z,72.60
2018-06-14T00:21:53.596Z,72.30
2018-06-14T00:24:21.227Z,72.30
2018-06-14T00:26:48.727Z,73.10
2018-06-14T00:29:16.334Z,73.10
2018-06-14T00:31:48.762Z,73.10
2018-06-14T00:34:16.322Z,72.80
2018-06-14T00:36:43.960Z,72.80
2018-06-14T00:39:11.549Z,73.20
2018-06-14T00:41:39.170Z,73.00
2018-06-14T00:44:06.793Z,72.70
2018-06-14T00:46:34.689Z,72.30
2018-06-14T00:49:02.248Z,71.50
2018-06-14T00:51:29.902Z,70.70
2018-06-14T00:53:57.641Z,70.30
2018-06-14T00:56:25.217Z,70.40
2018-06-14T00:58:54.931Z,70.50
2018-06-14T01:01:22.593Z,70.90
2018-06-14T01:03:50.153Z,71.10
2018-06-14T01:06:17.788Z,70.80
2018-06-14T01:08:45.434Z,71.10
2018-06-14T01:11:13.048Z,70.80
2018-06-14T01:13:40.711Z,70.90
2018-06-14T01:16:08.361Z,70.80
2018-06-14T01:18:35.905Z,71.00
2018-06-14T01:21:03.413Z,71.10
2018-06-14T01:23:31.079Z,71.70
2018-06-14T01:25:58.715Z,72.60
2018-06-14T01:28:26.269Z,72.40
2018-06-14T01:30:53.859Z,73.10
2018-06-14T01:33:21.475Z,72.50
2018-06-14T01:35:49.097Z,72.50
2018-06-14T01:38:22.998Z,72.80
2018-06-14T01:40:50.652Z,73.10
2018-06-14T01:43:18.446Z,73.00
2018-06-14T01:45:46.043Z,73.00
2018-06-14T01:48:13.713Z,72.60
2018-06-14T01:50:41.233Z,72.30
2018-06-14T01:53:08.895Z,72.50
2018-06-14T01:55:36.506Z,72.60
2018-06-14T01:58:04.249Z,71.90
2018-06-14T02:00:32.025Z,71.70
2018-06-14T02:02:59.578Z,71.20
2018-06-14T02:05:27.658Z,71.00
2018-06-14T02:07:55.255Z,72.50
2018-06-14T02:10:22.812Z,71.20
2018-06-14T02:12:50.464Z,71.10
2018-06-14T02:15:18.035Z,71.60
2018-06-14T02:17:45.626Z,72.00
2018-06-14T02:20:13.226Z,72.50
2018-06-14T02:22:40.785Z,72.60
2018-06-14T02:25:08.326Z,72.50
2018-06-14T02:27:35.889Z,72.20
2018-06-14T02:30:04.911Z,71.80
2018-06-14T02:32:32.714Z,71.90
2018-06-14T02:35:00.403Z,71.80
2018-06-14T02:37:28.108Z,71.70
2018-06-14T02:39:55.695Z,71.70
2018-06-14T02:42:23.343Z,71.70
2018-06-14T02:44:50.971Z,72.30
2018-06-14T02:47:41.752Z,71.50
2018-06-14T02:50:09.895Z,71.60
2018-06-14T02:52:37.580Z,71.40
2018-06-14T02:55:05.602Z,71.40
2018-06-14T02:57:33.162Z,71.40
2018-06-14T03:00:00.795Z,71.40
2018-06-14T03:02:28.728Z,71.30
2018-06-14T03:04:56.337Z,71.30
2018-06-14T03:07:29.610Z,71.40
2018-06-14T03:09:57.339Z,71.70
2018-06-14T03:12:25.262Z,71.30
2018-06-14T03:14:52.895Z,71.10
2018-06-14T03:17:21.004Z,71.10
2018-06-14T03:20:03.144Z,71.20
2018-06-14T03:22:30.847Z,71.20
2018-06-14T03:24:58.530Z,71.70
2018-06-14T03:27:26.134Z,71.40
2018-06-14T03:29:53.883Z,71.30
2018-06-14T03:32:21.595Z,71.40
2018-06-14T03:34:49.226Z,71.20
2018-06-14T03:37:16.886Z,71.40
2018-06-14T03:39:44.620Z,71.50
2018-06-14T03:42:13.313Z,71.40
2018-06-14T03:44:40.956Z,71.80
2018-06-14T03:47:22.281Z,71.60
2018-06-14T03:49:49.882Z,71.60
2018-06-14T03:52:17.420Z,71.60
2018-06-14T03:54:47.044Z,71.40
2018-06-14T03:57:14.516Z,71.60
2018-06-14T03:59:42.049Z,71.70
2018-06-14T04:02:09.957Z,71.90
2018-06-14T04:04:37.844Z,72.30
2018-06-14T04:07:05.564Z,72.50
2018-06-14T04:09:33.148Z,72.40
2018-06-14T04:12:00.710Z,72.20
2018-06-14T04:14:28.213Z,72.00
2018-06-14T04:16:55.760Z,72.10
2018-06-14T04:19:23.360Z,72.40
2018-06-14T04:21:50.972Z,72.50
2018-06-14T04:24:18.514Z,72.80
2018-06-14T04:26:47.211Z,72.80
2018-06-14T04:29:14.768Z,72.60
2018-06-14T04:31:42.360Z,72.70
2018-06-14T04:34:09.931Z,72.70
2018-06-14T04:36:37.556Z,72.80
2018-06-14T04:39:07.760Z,72.80
2018-06-14T04:41:36.740Z,73.00
2018-06-14T04:44:04.470Z,73.30
2018-06-14T04:46:32.424Z,73.40
2018-06-14T04:49:00.017Z,73.50
2018-06-14T04:51:27.721Z,73.20
2018-06-14T04:53:55.339Z,73.50
2018-06-14T04:56:23.141Z,73.50
2018-06-14T04:58:50.685Z,74.10
2018-06-14T05:01:18.417Z,74.10
2018-06-14T05:03:46.178Z,74.20
2018-06-14T05:06:13.902Z,74.10
2018-06-14T05:08:41.417Z,74.20
2018-06-14T05:11:09.098Z,73.90
2018-06-14T05:13:36.769Z,73.60
2018-06-14T05:16:04.547Z,73.50
2018-06-14T05:18:32.314Z,73.50
2018-06-14T05:20:59.759Z,73.60
2018-06-14T05:23:27.473Z,74.30
2018-06-14T05:25:54.991Z,74.00
2018-06-14T05:28:22.604Z,74.10
2018-06-14T05:30:50.204Z,74.30
2018-06-14T05:33:17.855Z,74.80
2018-06-14T05:35:45.417Z,76.20
2018-06-14T05:38:12.954Z,74.30
2018-06-14T05:40:40.397Z,74.50
2018-06-14T05:43:07.963Z,74.00
2018-06-14T05:45:35.587Z,73.90
2018-06-14T05:48:03.213Z,72.40
2018-06-14T05:50:30.825Z,72.00
2018-06-14T05:52:58.399Z,73.10
2018-06-14T05:55:25.916Z,72.20
2018-06-14T05:57:53.642Z,72.10
2018-06-14T06:00:21.662Z,71.40
2018-06-14T06:02:50.492Z,71.40
2018-06-14T06:05:34.677Z,71.70
2018-06-14T06:08:02.476Z,72.20
2018-06-14T06:10:30.010Z,72.00
2018-06-14T06:12:57.632Z,72.00
2018-06-14T06:15:25.220Z,71.30
2018-06-14T06:17:52.834Z,71.30
2018-06-14T06:20:20.461Z,72.30
2018-06-14T06:22:48.031Z,72.50
2018-06-14T06:25:19.780Z,71.40
2018-06-14T06:27:47.330Z,69.90
2018-06-14T06:30:14.822Z,69.00
2018-06-14T06:32:42.355Z,69.40
2018-06-14T06:35:09.999Z,69.70
2018-06-14T06:37:37.560Z,70.90
2018-06-14T06:40:05.127Z,69.70
2018-06-14T06:42:32.741Z,69.80
2018-06-14T06:45:05.789Z,70.40
2018-06-14T06:47:33.275Z,70.70
2018-06-14T06:50:00.851Z,70.40
2018-06-14T06:52:28.337Z,70.30
2018-06-14T06:54:55.864Z,70.50
2018-06-14T06:57:23.384Z,71.40
2018-06-14T06:59:56.163Z,68.00
2018-06-14T07:02:23.616Z,69.70
2018-06-14T07:04:51.084Z,69.30
2018-06-14T07:07:18.680Z,68.70
2018-06-14T07:09:46.246Z,69.10
2018-06-14T07:12:13.776Z,67.60
2018-06-14T07:14:41.266Z,68.30
2018-06-14T07:17:08.863Z,67.30
2018-06-14T07:19:36.370Z,67.50
2018-06-14T07:22:03.977Z,68.10
2018-06-14T07:24:31.516Z,67.50
2018-06-14T07:26:59.026Z,66.80
2018-06-14T07:29:26.560Z,67.00
2018-06-14T07:31:54.076Z,67.20
2018-06-14T07:34:21.606Z,66.00
2018-06-14T07:36:52.221Z,65.40
2018-06-14T07:39:19.772Z,66.20
2018-06-14T07:41:47.322Z,63.40
2018-06-14T07:44:14.864Z,61.10
2018-06-14T07:46:42.393Z,62.10
2018-06-14T07:49:09.991Z,63.70
2018-06-14T07:51:37.550Z,65.30
2018-06-14T07:54:05.131Z,65.10
2018-06-14T07:56:32.722Z,61.50
2018-06-14T07:59:00.273Z,61.90
2018-06-14T08:01:27.820Z,60.70
2018-06-14T08:03:55.390Z,60.40
2018-06-14T08:06:22.961Z,58.10
2018-06-14T08:08:50.517Z,60.70
2018-06-14T08:11:18.041Z,62.00
2018-06-14T08:13:45.556Z,60.30
2018-06-14T08:16:13.146Z,59.50
2018-06-14T08:18:40.661Z,56.00
2018-06-14T08:21:08.168Z,52.70
2018-06-14T08:23:35.692Z,51.90
2018-06-14T08:26:03.284Z,53.90
2018-06-14T08:28:30.839Z,54.00
2018-06-14T08:30:58.382Z,55.70
2018-06-14T08:33:25.904Z,54.10
2018-06-14T08:35:53.506Z,53.70
2018-06-14T08:38:21.121Z,55.80
2018-06-14T08:40:48.718Z,55.00
2018-06-14T08:43:16.256Z,55.60
2018-06-14T08:45:43.728Z,52.10
2018-06-14T08:48:11.310Z,53.30
2018-06-14T08:50:38.884Z,55.70
2018-06-14T08:53:06.486Z,53.40
2018-06-14T08:55:34.096Z,51.80
2018-06-14T08:58:01.701Z,52.80
2018-06-14T09:00:29.272Z,51.50
2018-06-14T09:02:56.831Z,50.90
2018-06-14T09:05:24.361Z,50.90
2018-06-14T09:07:51.914Z,50.00
2018-06-14T09:10:19.532Z,51.60
2018-06-14T09:12:49.171Z,49.90
2018-06-14T09:15:16.730Z,50.90
2018-06-14T09:17:44.304Z,50.30
2018-06-14T09:20:11.801Z,51.20
2018-06-14T09:22:39.312Z,53.90
2018-06-14T09:25:06.892Z,53.00
2018-06-14T09:27:34.454Z,52.20
2018-06-14T09:30:02.019Z,55.20
2018-06-14T09:32:29.620Z,50.10
2018-06-14T09:34:57.200Z,53.80
2018-06-14T09:37:24.836Z,52.50
2018-06-14T09:39:52.346Z,53.70
2018-06-14T09:42:19.832Z,52.40
2018-06-14T09:44:47.442Z,50.80
2018-06-14T09:47:15.009Z,48.90
2018-06-14T09:49:42.534Z,50.10
2018-06-14T09:52:10.093Z,50.20
2018-06-14T09:54:37.546Z,48.60
2018-06-14T09:57:06.119Z,48.00
2018-06-14T09:59:33.708Z,49.40
2018-06-14T10:02:01.225Z,49.60
2018-06-14T10:04:28.846Z,50.00
2018-06-14T10:06:56.426Z,47.80
2018-06-14T10:12:19.343Z,49.80
2018-06-14T10:14:46.999Z,50.50
2018-06-14T10:17:15.555Z,52.30
2018-06-14T10:19:44.158Z,50.00
2018-06-14T10:22:11.738Z,46.70
2018-06-14T10:24:44.117Z,48.00
2018-06-14T10:27:12.709Z,51.20
2018-06-14T10:29:40.676Z,47.40
2018-06-14T10:32:08.229Z,47.10
2018-06-14T10:34:37.841Z,47.10
2018-06-14T10:37:07.780Z,46.80
2018-06-14T10:39:35.419Z,48.00
2018-06-14T10:42:03.082Z,46.00
2018-06-14T10:44:30.640Z,47.10
2018-06-14T10:46:58.205Z,46.70
2018-06-14T10:49:26.804Z,46.10
2018-06-14T10:51:55.394Z,47.20
2018-06-14T10:54:23.052Z,46.30
2018-06-14T10:56:50.646Z,47.00
2018-06-14T10:59:18.193Z,49.00
2018-06-14T11:01:45.686Z,48.10
2018-06-14T11:04:13.208Z,48.80
2018-06-14T11:12:31.874Z,50.40
2018-06-14T11:14:59.421Z,48.80
2018-06-14T11:17:27.083Z,49.60
2018-06-14T11:19:54.843Z,46.70
2018-06-14T11:22:22.434Z,45.00
2018-06-14T11:24:50.004Z,45.50
2018-06-14T11:27:17.638Z,47.90
2018-06-14T11:29:45.213Z,48.70
2018-06-14T11:32:12.781Z,48.00
2018-06-14T11:34:40.276Z,46.50
2018-06-14T11:37:07.812Z,45.10
2018-06-14T11:39:35.408Z,43.90
2018-06-14T11:42:02.840Z,46.90
2018-06-14T11:44:31.469Z,46.60
2018-06-14T11:46:59.039Z,46.10
2018-06-14T11:49:26.520Z,46.60
2018-06-14T11:51:54.094Z,46.20
2018-06-14T11:54:21.582Z,46.10
2018-06-14T11:56:49.302Z,45.60
2018-06-14T11:59:16.999Z,46.30
2018-06-14T12:01:44.585Z,46.90
2018-06-14T12:04:12.106Z,46.30
2018-06-14T12:06:39.625Z,44.60
2018-06-14T12:09:07.900Z,45.90
2018-06-14T12:11:35.445Z,46.20
2018-06-14T12:14:03.021Z,45.90
2018-06-14T12:19:28.782Z,45.20
2018-06-14T12:21:56.298Z,43.40
2018-06-14T12:24:23.870Z,45.30
2018-06-14T12:26:51.422Z,45.70
2018-06-14T12:29:18.925Z,45.90
2018-06-14T12:31:46.475Z,46.80
2018-06-14T12:34:17.169Z,43.70
2018-06-14T12:36:44.666Z,45.20
2018-06-14T12:39:12.271Z,45.40
2018-06-14T12:41:39.933Z,46.20
2018-06-14T12:44:07.724Z,46.20
2018-06-14T12:46:35.200Z,44.90
2018-06-14T12:49:03.225Z,45.10
2018-06-14T12:51:30.752Z,45.60
2018-06-14T12:53:58.292Z,42.50
2018-06-14T12:56:25.872Z,46.60
2018-06-14T12:58:56.546Z,44.70
2018-06-14T13:01:24.206Z,44.80
2018-06-14T13:03:52.655Z,45.20
2018-06-14T13:06:22.481Z,43.80
2018-06-14T13:08:51.722Z,43.70
2018-06-14T13:11:23.070Z,44.00
2018-06-14T13:13:50.819Z,43.00
2018-06-14T13:16:18.707Z,44.70
2018-06-14T13:18:47.405Z,42.80
2018-06-14T13:21:15.989Z,45.00
2018-06-14T13:23:44.169Z,43.80
2018-06-14T13:26:11.837Z,44.50
2018-06-14T13:28:39.442Z,42.40
2018-06-14T13:31:07.066Z,43.30
2018-06-14T13:33:34.557Z,45.00
2018-06-14T13:36:02.390Z,43.40
2018-06-14T13:38:30.089Z,42.90
2018-06-14T13:40:57.694Z,43.40
2018-06-14T13:43:26.383Z,42.10
2018-06-14T13:45:54.000Z,43.00
2018-06-14T13:48:21.531Z,42.60
2018-06-14T13:50:49.077Z,41.20
2018-06-14T13:53:16.569Z,42.00
2018-06-14T13:55:44.170Z,41.90
2018-06-14T13:58:11.781Z,41.70
2018-06-14T14:00:39.337Z,43.20
2018-06-14T14:03:06.841Z,44.50
2018-06-14T14:05:34.421Z,43.80
2018-06-14T14:08:02.034Z,44.60
2018-06-14T14:10:29.601Z,42.80
2018-06-14T14:12:57.193Z,44.70
2018-06-14T14:15:24.718Z,42.20
2018-06-14T14:17:52.274Z,40.30
2018-06-14T14:20:19.757Z,41.80
2018-06-14T14:22:47.285Z,44.00
2018-06-14T14:25:25.725Z,40.20
2018-06-14T14:27:53.218Z,40.20
2018-06-14T14:30:20.791Z,42.80
2018-06-14T14:32:48.382Z,43.20
2018-06-14T14:35:15.992Z,44.80
2018-06-14T14:37:43.600Z,43.10
2018-06-14T14:40:11.177Z,41.00
2018-06-14T14:42:38.771Z,44.20
2018-06-14T14:45:06.336Z,42.80
2018-06-14T14:47:33.865Z,43.00
2018-06-14T14:50:01.721Z,44.90
2018-06-14T14:52:29.330Z,42.40
2018-06-14T14:54:56.858Z,41.90
2018-06-14T14:57:24.394Z,42.00
2018-06-14T14:59:51.937Z,42.90
2018-06-14T15:02:19.458Z,40.50
2018-06-14T15:04:47.002Z,41.90
2018-06-14T15:07:14.623Z,43.00
2018-06-14T15:09:42.108Z,44.20
2018-06-14T15:12:09.688Z,42.90
2018-06-14T15:14:37.195Z,42.00
2018-06-14T15:17:04.853Z,41.70
2018-06-14T15:19:32.336Z,45.70
2018-06-14T15:21:59.933Z,44.10
2018-06-14T15:24:27.488Z,42.60
2018-06-14T15:26:55.114Z,43.20
2018-06-14T15:29:22.689Z,42.90
2018-06-14T15:31:50.306Z,43.00
2018-06-14T15:34:17.805Z,41.10
2018-06-14T15:36:45.397Z,42.70
2018-06-14T15:39:12.907Z,41.40
2018-06-14T15:41:40.484Z,41.60
2018-06-14T15:44:08.054Z,41.70
2018-06-14T15:46:35.580Z,41.00
2018-06-14T15:49:03.158Z,41.80
2018-06-14T15:51:30.672Z,41.50
2018-06-14T15:53:58.273Z,42.90
2018-06-14T15:56:33.072Z,40.10
2018-06-14T15:59:01.177Z,42.00
2018-06-14T16:01:28.730Z,41.10
2018-06-14T16:03:56.376Z,40.10
2018-06-14T16:06:23.973Z,40.40
2018-06-14T16:08:51.546Z,42.30
2018-06-14T16:11:19.074Z,42.60
2018-06-14T16:13:47.639Z,41.00
2018-06-14T16:16:15.456Z,43.00
2018-06-14T16:18:43.002Z,42.80
2018-06-14T16:21:10.630Z,43.70
2018-06-14T16:23:38.221Z,42.00
2018-06-14T16:26:05.994Z,41.80
2018-06-14T16:28:33.536Z,43.40
2018-06-14T16:31:01.145Z,42.60
2018-06-14T16:33:28.758Z,42.00
2018-06-14T16:35:59.511Z,43.50
2018-06-14T16:38:27.101Z,42.80
2018-06-14T16:40:54.636Z,41.20
2018-06-14T16:43:22.230Z,41.60
2018-06-14T16:45:49.825Z,43.30
2018-06-14T16:48:17.361Z,45.10
2018-06-14T16:50:44.952Z,44.30
2018-06-14T16:53:12.548Z,44.40
2018-06-14T16:55:40.040Z,44.70
2018-06-14T16:58:08.655Z,44.80
2018-06-14T17:00:39.447Z,45.70
2018-06-14T17:03:06.948Z,44.90
2018-06-14T17:05:34.546Z,45.90
2018-06-14T17:08:02.086Z,45.80
2018-06-14T17:10:29.678Z,45.20
2018-06-14T17:13:02.525Z,45.00
2018-06-14T17:15:30.061Z,46.40
2018-06-14T17:17:57.665Z,46.40
2018-06-14T17:20:25.232Z,47.40
2018-06-14T17:22:52.806Z,46.90
2018-06-14T17:25:20.430Z,48.30
2018-06-14T17:27:47.903Z,48.50
2018-06-14T17:30:15.559Z,48.00
2018-06-14T17:32:55.132Z,48.10
2018-06-14T17:35:22.714Z,48.50
2018-06-14T17:37:50.214Z,49.20
2018-06-14T17:40:17.769Z,49.20
2018-06-14T17:42:45.412Z,48.90
2018-06-14T17:45:12.979Z,49.70
2018-06-14T17:47:40.576Z,48.40
2018-06-14T17:50:08.156Z,48.90
2018-06-14T17:52:35.786Z,49.50
2018-06-14T17:55:03.588Z,49.90
2018-06-14T17:57:31.077Z,50.30
2018-06-14T17:59:58.719Z,50.20
2018-06-14T18:02:26.258Z,50.30
2018-06-14T18:04:53.878Z,51.10
2018-06-14T18:07:21.448Z,51.10
2018-06-14T18:09:49.096Z,51.00
2018-06-14T18:12:16.708Z,51.10
2018-06-14T18:14:45.263Z,51.80
2018-06-14T18:17:12.813Z,53.00
2018-06-14T18:19:40.356Z,53.40
2018-06-14T18:22:08.017Z,53.20
2018-06-14T18:24:35.550Z,53.30
2018-06-14T18:27:03.118Z,53.50
2018-06-14T18:29:30.656Z,53.50
2018-06-14T18:31:58.229Z,53.10
2018-06-14T18:34:25.854Z,53.30
2018-06-14T18:36:53.422Z,53.60
2018-06-14T18:39:20.960Z,52.80
2018-06-14T18:41:48.575Z,53.10
2018-06-14T18:44:16.239Z,53.40
2018-06-14T18:46:43.766Z,53.70
2018-06-14T18:49:11.278Z,53.70
2018-06-14T18:51:38.788Z,53.90
2018-06-14T18:54:06.349Z,54.30
2018-06-14T18:56:33.828Z,54.00
2018-06-14T18:59:01.390Z,54.20
2018-06-14T19:01:52.433Z,54.10
2018-06-14T19:04:19.967Z,53.90
2018-06-14T19:06:47.546Z,54.00
2018-06-14T19:09:15.026Z,54.20
2018-06-14T19:11:42.546Z,55.10
2018-06-14T19:14:10.070Z,55.30
2018-06-14T19:16:54.730Z,55.50
2018-06-14T19:19:22.268Z,56.00
2018-06-14T19:21:49.864Z,56.90
2018-06-14T19:24:17.456Z,56.80
2018-06-14T19:26:44.983Z,57.30
2018-06-14T19:29:12.455Z,57.00
2018-06-14T19:31:40.012Z,56.60
2018-06-14T19:34:08.615Z,56.50
2018-06-14T19:36:36.127Z,56.30
2018-06-14T19:39:06.480Z,56.60
2018-06-14T19:41:34.022Z,56.70
2018-06-14T19:44:01.669Z,56.80
2018-06-14T19:46:33.016Z,56.70
2018-06-14T19:49:00.570Z,56.50
2018-06-14T19:51:29.002Z,56.40
2018-06-14T19:53:56.533Z,56.00
2018-06-14T19:56:44.192Z,56.30
2018-06-14T19:59:11.786Z,56.10
2018-06-14T20:01:39.244Z,56.90
2018-06-14T20:04:06.827Z,57.20
2018-06-14T20:06:35.482Z,57.50
2018-06-14T20:09:03.807Z,57.30
2018-06-14T20:11:31.386Z,57.30
2018-06-14T20:14:04.798Z,57.50
2018-06-14T20:16:32.392Z,57.60
2018-06-14T20:18:59.905Z,57.90
2018-06-14T20:21:27.457Z,57.40
2018-06-14T20:23:54.954Z,57.40
2018-06-14T20:26:24.220Z,57.00
2018-06-14T20:28:52.253Z,57.10
2018-06-14T20:31:19.967Z,57.10
2018-06-14T20:33:47.537Z,57.40
2018-06-14T20:36:15.108Z,57.30
2018-06-14T20:38:42.753Z,57.50
2018-06-14T20:41:10.375Z,58.10
2018-06-14T20:43:37.962Z,57.40
2018-06-14T20:46:05.669Z,58.10
2018-06-14T20:48:33.306Z,58.10
2018-06-14T20:51:00.880Z,58.40
2018-06-14T20:53:28.569Z,58.10
2018-06-14T20:55:58.302Z,57.40
2018-06-14T20:58:25.963Z,58.60
2018-06-14T21:00:53.559Z,58.40
2018-06-14T21:03:21.155Z,58.70
2018-06-14T21:05:48.655Z,58.70
2018-06-14T21:08:16.193Z,58.60
2018-06-14T21:10:45.854Z,58.60
2018-06-14T21:13:13.600Z,58.70
2018-06-14T21:15:41.266Z,59.20
2018-06-14T21:18:09.985Z,59.40
2018-06-14T21:20:37.552Z,59.50
2018-06-14T21:23:11.671Z,59.70
2018-06-14T21:25:39.199Z,59.30
2018-06-14T21:28:06.777Z,59.50
2018-06-14T21:30:34.371Z,58.80
2018-06-14T21:33:01.957Z,58.80
2018-06-14T21:35:29.508Z,59.40
2018-06-14T21:37:57.103Z,59.50
2018-06-14T21:40:24.694Z,59.70
2018-06-14T21:42:52.310Z,59.50
2018-06-14T21:45:19.777Z,59.80
2018-06-14T21:47:47.313Z,60.40
2018-06-14T21:50:14.838Z,59.80
2018-06-14T21:52:42.382Z,60.20
2018-06-14T21:55:10.065Z,60.30
2018-06-14T22:00:38.253Z,60.10
2018-06-14T22:03:11.530Z,60.30
2018-06-14T22:05:39.163Z,59.90
2018-06-14T22:08:06.674Z,59.50
2018-06-14T22:10:34.243Z,60.40
2018-06-14T22:13:01.812Z,60.50
2018-06-14T22:15:29.420Z,60.60
2018-06-14T22:17:56.973Z,60.90
2018-06-14T22:20:30.480Z,60.90
2018-06-14T22:22:57.953Z,61.20
2018-06-14T22:25:25.575Z,61.50
2018-06-14T22:27:53.324Z,61.50
2018-06-14T22:30:20.824Z,61.80
2018-06-14T22:32:58.565Z,62.20
2018-06-14T22:35:28.361Z,62.50
2018-06-14T22:37:56.290Z,62.40
2018-06-14T22:40:23.900Z,62.30
2018-06-14T22:42:51.437Z,61.70
2018-06-14T22:45:19.039Z,62.10
2018-06-14T22:47:46.572Z,62.30
2018-06-14T22:50:14.167Z,62.30
2018-06-14T22:52:51.328Z,62.60
2018-06-14T22:55:20.123Z,62.30
2018-06-14T22:57:48.049Z,62.20
2018-06-14T23:00:28.519Z,61.40
2018-06-14T23:02:56.134Z,61.80
2018-06-14T23:05:29.526Z,61.70
2018-06-14T23:07:57.064Z,61.80
2018-06-14T23:10:40.025Z,62.30
2018-06-14T23:13:08.817Z,62.20
2018-06-14T23:15:36.500Z,62.60
2018-06-14T23:18:04.349Z,63.50
2018-06-14T23:20:32.783Z,63.90
2018-06-14T23:23:00.899Z,63.70
2018-06-14T23:25:29.298Z,63.30
2018-06-14T23:27:56.894Z,63.30
2018-06-14T23:30:24.632Z,63.90
2018-06-14T23:32:52.316Z,63.90
2018-06-14T23:35:20.043Z,65.10
2018-06-14T23:37:47.686Z,64.50
2018-06-14T23:40:15.303Z,64.30
2018-06-14T23:42:42.945Z,63.90
2018-06-14T23:45:10.471Z,64.00
2018-06-14T23:47:38.130Z,64.00
2018-06-14T23:50:05.897Z,64.60
2018-06-14T23:52:33.582Z,64.40
2018-06-14T23:55:01.219Z,65.60
2018-06-14T23:57:28.817Z,65.40
2018-06-14T23:59:56.462Z,65.50
